Time;durP1;ratioP1;P1;durP2;ratioP2;P2;SDS_P1;SDS_P2;PMS_P1;PMS_P2;Temp;Humidity;BMP_temperature;BMP_pressure;BME280_temperature;BME280_humidity;BME280_pressure;Samples;Min_cycle;Max_cycle;Signal;HPM_P1;HPM_P2
2022/01/13 00:02:23;;;;;;;26.33;11.93;;;;;;;-141.29;100.00;58932.97;5075373;28;20439;-74
2022/01/13 00:04:51;;;;;;;28.63;11.90;;;;;;;-141.29;100.00;58932.97;5071908;28;20496;-73
2022/01/13 00:07:20;;;;;;;24.00;11.60;;;;;;;-141.29;100.00;58932.97;5071763;28;20450;-75
2022/01/13 00:09:48;;;;;;;27.73;12.73;;;;;;;-141.29;100.00;58932.97;5071655;28;20945;-74
2022/01/13 00:12:18;;;;;;;25.90;13.00;;;;;;;-141.29;100.00;58932.97;5071703;28;20500;-75
2022/01/13 00:15:06;;;;;;;22.63;11.50;;;;;;;-141.29;100.00;58932.97;5070857;28;20453;-74
2022/01/13 00:17:46;;;;;;;22.93;11.90;;;;;;;-141.29;100.00;58932.97;5071433;28;20447;-73
2022/01/13 00:26:02;;;;;;;22.50;11.07;;;;;;;-141.29;100.00;58932.97;5072287;28;20453;-75
2022/01/13 00:28:33;;;;;;;26.80;12.27;;;;;;;-141.29;100.00;58932.97;5071495;28;20451;-74
2022/01/13 00:31:05;;;;;;;31.43;12.97;;;;;;;-141.29;100.00;58932.97;5072015;28;20521;-75
2022/01/13 00:33:33;;;;;;;25.37;12.67;;;;;;;-141.29;100.00;58932.97;5072177;28;20983;-73
2022/01/13 00:36:01;;;;;;;27.65;13.00;;;;;;;-141.29;100.00;58932.97;5071685;28;20427;-74
2022/01/13 00:38:30;;;;;;;26.90;13.10;;;;;;;-141.29;100.00;58932.97;5071472;28;20231;-75
2022/01/13 00:41:00;;;;;;;26.57;12.50;;;;;;;-141.29;100.00;58932.97;5071508;28;20479;-73
2022/01/13 00:43:29;;;;;;;28.23;12.50;;;;;;;-141.29;100.00;58932.97;5071704;28;20450;-74
2022/01/13 00:45:56;;;;;;;31.83;12.37;;;;;;;-141.29;100.00;58932.97;5071608;28;20434;-72
2022/01/13 00:48:33;;;;;;;25.23;12.18;;;;;;;-141.29;100.00;58932.97;5071120;28;21054;-75
2022/01/13 00:51:01;;;;;;;26.73;12.27;;;;;;;-141.29;100.00;58932.97;5070236;28;20232;-75
2022/01/13 00:53:29;;;;;;;24.40;10.65;;;;;;;-141.29;100.00;58932.97;5071358;28;20749;-74
2022/01/13 00:56:01;;;;;;;22.63;9.33;;;;;;;-141.29;100.00;58932.97;5072130;28;20200;-74
2022/01/13 00:58:29;;;;;;;23.38;11.48;;;;;;;-141.29;100.00;58932.97;5071536;28;20431;-75
2022/01/13 01:00:57;;;;;;;31.05;12.50;;;;;;;-141.29;100.00;58932.97;5074423;28;20192;-75
2022/01/13 01:03:25;;;;;;;25.60;11.53;;;;;;;-141.29;100.00;58932.97;5075189;28;20197;-75
2022/01/13 01:05:54;;;;;;;18.80;7.65;;;;;;;-141.29;100.00;58932.97;5073681;28;20448;-74
2022/01/13 01:08:23;;;;;;;27.25;12.18;;;;;;;-141.29;100.00;58932.97;5074900;28;20196;-73
2022/01/13 01:11:01;;;;;;;31.50;12.07;;;;;;;-141.29;100.00;58932.97;5075162;28;20224;-74
2022/01/13 01:13:32;;;;;;;32.83;13.57;;;;;;;-141.29;100.00;58932.97;5075231;28;20651;-74
2022/01/13 01:16:09;;;;;;;27.52;11.35;;;;;;;-141.29;100.00;58932.97;5074698;28;20242;-75
2022/01/13 01:18:48;;;;;;;31.85;12.50;;;;;;;-141.29;100.00;58932.97;5075182;28;20204;-73
2022/01/13 01:21:36;;;;;;;31.02;12.27;;;;;;;-141.29;100.00;58932.97;5075377;28;20201;-75
2022/01/13 01:27:05;;;;;;;26.55;12.23;;;;;;;-141.29;100.00;58932.97;5052441;28;20754;-74
2022/01/13 01:29:39;;;;;;;32.17;13.85;;;;;;;-141.29;100.00;58932.97;5070018;28;20273;-72
2022/01/13 01:32:10;;;;;;;28.08;12.93;;;;;;;-141.29;100.00;58932.97;5074493;28;20283;-75
2022/01/13 01:34:53;;;;;;;31.02;12.88;;;;;;;-141.29;100.00;58932.97;5074135;28;20279;-75
2022/01/13 01:37:23;;;;;;;26.77;10.85;;;;;;;-141.29;100.00;58932.97;5074799;28;20269;-73
2022/01/13 01:39:51;;;;;;;33.90;13.23;;;;;;;-141.29;100.00;58932.97;5074278;28;20655;-73
2022/01/13 01:42:23;;;;;;;30.02;12.02;;;;;;;-141.29;100.00;58932.97;5074066;28;20237;-73
2022/01/13 01:44:53;;;;;;;32.75;13.02;;;;;;;-141.29;100.00;58932.97;5074156;28;20196;-73
2022/01/13 01:47:23;;;;;;;32.90;13.18;;;;;;;-141.29;100.00;58932.97;5074229;28;20204;-74
2022/01/13 01:49:56;;;;;;;30.05;12.98;;;;;;;-141.29;100.00;58932.97;5073690;28;20306;-74
2022/01/13 01:52:25;;;;;;;25.50;12.48;;;;;;;-141.29;100.00;58932.97;5074135;28;20202;-75
2022/01/13 01:54:53;;;;;;;32.60;12.35;;;;;;;-141.29;100.00;58932.97;5073809;28;20227;-77
2022/01/13 01:57:26;;;;;;;23.00;10.02;;;;;;;-141.29;100.00;58932.97;5074035;28;20641;-73
2022/01/13 01:59:56;;;;;;;28.27;11.77;;;;;;;-141.29;100.00;58932.97;5074142;28;20285;-74
2022/01/13 02:02:25;;;;;;;30.88;12.68;;;;;;;-141.29;100.00;58932.97;5073098;28;20207;-73
2022/01/13 02:04:52;;;;;;;29.83;11.43;;;;;;;-141.29;100.00;58932.97;5073867;28;20227;-76
2022/01/13 02:07:19;;;;;;;31.33;13.45;;;;;;;-141.29;100.00;58932.97;5074096;28;20196;-73
2022/01/13 02:09:51;;;;;;;35.50;13.35;;;;;;;-141.29;100.00;58932.97;5076470;28;20676;-74
2022/01/13 02:12:30;;;;;;;27.58;11.30;;;;;;;-141.29;100.00;58932.97;5076850;28;20701;-74
2022/01/13 02:15:15;;;;;;;28.55;12.35;;;;;;;-141.29;100.00;58932.97;5074021;28;20192;-75
2022/01/13 02:17:43;;;;;;;28.88;11.93;;;;;;;-141.29;100.00;58932.97;5073607;28;20203;-75
2022/01/13 02:20:12;;;;;;;23.80;9.88;;;;;;;-141.29;100.00;58932.97;5073541;28;20305;-75
2022/01/13 02:22:41;;;;;;;19.92;9.32;;;;;;;-141.29;100.00;58932.97;5055936;28;20204;-73
2022/01/13 02:25:09;;;;;;;24.05;9.93;;;;;;;-141.29;100.00;58932.97;5073010;28;20210;-74
2022/01/13 02:27:42;;;;;;;28.33;12.52;;;;;;;-141.29;100.00;58932.97;5073210;28;20246;-74
2022/01/13 02:30:10;;;;;;;25.92;11.27;;;;;;;-141.29;100.00;58932.97;5073514;28;20667;-75
2022/01/13 02:32:37;;;;;;;34.42;12.32;;;;;;;-141.29;100.00;58932.97;5073035;28;20672;-75
2022/01/13 02:35:12;;;;;;;28.38;10.85;;;;;;;-141.29;100.00;58932.97;5073186;28;20201;-75
2022/01/13 02:37:44;;;;;;;31.63;11.85;;;;;;;-141.29;100.00;58932.97;5073616;28;20196;-73
2022/01/13 02:40:14;;;;;;;27.98;12.65;;;;;;;-141.29;100.00;58932.97;5073319;28;20371;-74
2022/01/13 02:42:41;;;;;;;32.78;13.27;;;;;;;-141.29;100.00;58932.97;5073661;28;20201;-77
2022/01/13 02:45:18;;;;;;;26.67;11.68;;;;;;;-141.29;100.00;58932.97;5073021;28;20254;-74
2022/01/13 02:50:30;;;;;;;28.50;12.18;;;;;;;-141.29;100.00;58932.97;5071964;28;20316;-72
2022/01/13 02:53:16;;;;;;;28.75;12.13;;;;;;;-141.29;100.00;58932.97;5073978;28;20196;-76
2022/01/13 02:55:44;;;;;;;25.48;10.23;;;;;;;-141.29;100.00;58932.97;5072724;28;20200;-76
2022/01/13 02:58:15;;;;;;;33.58;13.63;;;;;;;-141.29;100.00;58932.97;5072571;28;20720;-73
2022/01/13 03:00:44;;;;;;;32.47;12.43;;;;;;;-141.29;100.00;58932.97;5072671;28;20231;-74
2022/01/13 03:03:14;;;;;;;33.75;12.75;;;;;;;-141.29;100.00;58932.97;5072566;28;20636;-73
2022/01/13 03:05:42;;;;;;;27.48;10.30;;;;;;;-141.29;100.00;58932.97;5072913;28;20660;-75
2022/01/13 03:08:11;;;;;;;30.60;12.40;;;;;;;-141.29;100.00;58932.97;5072893;28;20655;-74
2022/01/13 03:10:39;;;;;;;28.05;12.38;;;;;;;-141.29;100.00;58932.97;5072614;28;20240;-76
2022/01/13 03:13:07;;;;;;;30.00;12.60;;;;;;;-141.29;100.00;58932.97;5072624;28;20245;-74
2022/01/13 03:15:39;;;;;;;28.83;12.77;;;;;;;-141.29;100.00;58932.97;5072621;28;20624;-75
2022/01/13 03:18:09;;;;;;;27.38;11.98;;;;;;;-141.29;100.00;58932.97;5072894;28;20287;-74
2022/01/13 03:20:36;;;;;;;27.58;11.60;;;;;;;-141.29;100.00;58932.97;5072371;28;20357;-74
2022/01/13 03:23:05;;;;;;;28.42;11.48;;;;;;;-141.29;100.00;58932.97;5072025;28;20208;-75
2022/01/13 03:25:45;;;;;;;23.98;10.98;;;;;;;-141.29;100.00;58932.97;5072641;28;20196;-77
2022/01/13 03:28:39;;;;;;;28.10;12.35;;;;;;;-141.29;100.00;58932.97;5072291;28;20199;-74
2022/01/13 03:31:11;;;;;;;18.42;8.13;;;;;;;-141.29;100.00;58932.97;5072212;28;20655;-75
2022/01/13 03:33:40;;;;;;;17.65;8.52;;;;;;;-141.29;100.00;58932.97;5071651;28;20206;-74
2022/01/13 03:36:08;;;;;;;26.70;11.82;;;;;;;-141.29;100.00;58932.97;5072335;28;20208;-73
2022/01/13 03:38:36;;;;;;;29.15;11.50;;;;;;;-141.29;100.00;58932.97;5072254;28;20207;-76
2022/01/13 03:41:05;;;;;;;28.90;12.27;;;;;;;-141.29;100.00;58932.97;5071918;28;20231;-76
2022/01/13 03:43:37;;;;;;;31.02;12.25;;;;;;;-141.29;100.00;58932.97;5072094;28;20714;-73
2022/01/13 03:46:04;;;;;;;20.77;9.43;;;;;;;-141.29;100.00;58932.97;5072192;28;20200;-73
2022/01/13 03:48:31;;;;;;;27.92;11.90;;;;;;;-141.29;100.00;58932.97;5071822;28;20707;-72
2022/01/13 03:50:58;;;;;;;24.83;9.70;;;;;;;-141.29;100.00;58932.97;5072001;28;20288;-73
2022/01/13 03:54:01;;;;;;;27.38;12.20;;;;;;;-141.29;100.00;58932.97;5071737;28;20196;-74
2022/01/13 03:57:20;;;;;;;30.88;12.60;;;;;;;-141.29;100.00;58932.97;5071949;28;20295;-76
2022/01/13 04:00:47;;;;;;;28.92;11.45;;;;;;;-141.29;100.00;58932.97;5071871;28;20293;-74
2022/01/13 04:03:14;;;;;;;23.10;10.68;;;;;;;-141.29;100.00;58932.97;5072006;28;20278;-77
2022/01/13 04:06:07;;;;;;;18.27;8.68;;;;;;;-141.29;100.00;58932.97;5071780;28;20203;-72
2022/01/13 04:08:34;;;;;;;24.08;10.10;;;;;;;-141.29;100.00;58932.97;5071958;28;20646;-75
2022/01/13 04:11:16;;;;;;;22.90;10.60;;;;;;;-141.29;100.00;58932.97;5071551;28;20679;-73
2022/01/13 04:14:01;;;;;;;27.27;10.95;;;;;;;-141.29;100.00;58932.97;5072301;28;20642;-75
2022/01/13 04:16:36;;;;;;;22.70;8.85;;;;;;;-141.29;100.00;58932.97;5071916;28;20693;-74
2022/01/13 04:19:06;;;;;;;21.20;8.10;;;;;;;-141.29;100.00;58932.97;5072022;28;20204;-76
2022/01/13 04:21:38;;;;;;;21.33;9.90;;;;;;;-141.29;100.00;58932.97;5076376;28;20231;-74
2022/01/13 04:24:12;;;;;;;24.88;10.88;;;;;;;-141.29;100.00;58932.97;5070998;28;20205;-75
2022/01/13 04:26:42;;;;;;;22.80;9.75;;;;;;;-141.29;100.00;58932.97;5072798;28;20682;-76
2022/01/13 04:32:12;;;;;;;22.73;8.52;;;;;;;-141.29;100.00;58932.97;5070946;28;20200;-74
2022/01/13 04:34:39;;;;;;;25.20;11.52;;;;;;;-141.29;100.00;58932.97;5071851;28;20635;-74
2022/01/13 04:37:06;;;;;;;24.60;10.52;;;;;;;-141.29;100.00;58932.97;5075158;28;20209;-76
2022/01/13 04:39:33;;;;;;;19.55;9.20;;;;;;;-141.29;100.00;58932.97;5075275;28;20654;-75
2022/01/13 04:42:00;;;;;;;28.40;11.18;;;;;;;-141.29;100.00;58932.97;5075338;28;20262;-76
2022/01/13 04:44:30;;;;;;;24.20;11.02;;;;;;;-141.29;100.00;58932.97;5075490;28;20635;-73
2022/01/13 04:46:57;;;;;;;21.45;8.07;;;;;;;-141.29;100.00;58932.97;5075679;28;20196;-75
2022/01/13 04:49:26;;;;;;;25.58;10.65;;;;;;;-141.29;100.00;58932.97;5074978;28;20219;-73
2022/01/13 04:51:54;;;;;;;23.35;10.43;;;;;;;-141.29;100.00;58932.97;5075527;28;20200;-74
2022/01/13 04:54:21;;;;;;;26.23;10.35;;;;;;;-141.29;100.00;58932.97;5074968;28;20659;-73
2022/01/13 04:57:06;;;;;;;29.60;10.25;;;;;;;-141.29;100.00;58932.97;5074940;28;20634;-74
2022/01/13 04:59:33;;;;;;;14.55;6.63;;;;;;;-141.29;100.00;58932.97;5075377;28;20208;-75
2022/01/13 05:02:05;;;;;;;31.23;10.80;;;;;;;-141.29;100.00;58932.97;5075088;28;20204;-75
2022/01/13 05:04:33;;;;;;;22.10;9.82;;;;;;;-141.29;100.00;58932.97;5075165;28;20200;-76
2022/01/13 05:07:01;;;;;;;24.98;10.82;;;;;;;-141.29;100.00;58932.97;5075010;28;20193;-75
2022/01/13 05:09:47;;;;;;;26.05;11.00;;;;;;;-141.29;100.00;58932.97;5075341;28;20270;-75
2022/01/13 05:12:17;;;;;;;27.73;9.75;;;;;;;-141.29;100.00;58932.97;5076221;28;20204;-75
2022/01/13 05:14:53;;;;;;;27.48;12.05;;;;;;;-141.29;100.00;58932.97;5074815;28;20197;-73
2022/01/13 05:17:48;;;;;;;27.27;9.48;;;;;;;-141.29;100.00;58932.97;5074651;28;20196;-74
2022/01/13 05:20:21;;;;;;;26.27;11.07;;;;;;;-141.29;100.00;58932.97;5074654;28;20224;-75
2022/01/13 05:22:50;;;;;;;20.85;9.90;;;;;;;-141.29;100.00;58932.97;5075029;28;20215;-75
2022/01/13 05:25:21;;;;;;;26.35;10.13;;;;;;;-141.29;100.00;58932.97;5074970;28;20226;-74
2022/01/13 05:27:50;;;;;;;17.98;7.55;;;;;;;-141.29;100.00;58932.97;5074639;28;20200;-74
2022/01/13 05:30:19;;;;;;;23.13;9.43;;;;;;;-141.29;100.00;58932.97;5074592;28;20196;-74
2022/01/13 05:32:48;;;;;;;24.70;10.50;;;;;;;-141.29;100.00;58932.97;5075199;28;20291;-74
2022/01/13 05:35:28;;;;;;;22.55;10.43;;;;;;;-141.29;100.00;58932.97;5074834;28;20200;-73
2022/01/13 05:37:56;;;;;;;23.25;9.45;;;;;;;-141.29;100.00;58932.97;5074486;28;20725;-74
2022/01/13 05:40:27;;;;;;;27.83;10.18;;;;;;;-141.29;100.00;58932.97;5073102;28;20706;-76
2022/01/13 05:42:56;;;;;;;19.35;8.05;;;;;;;-141.29;100.00;58932.97;5074532;28;20192;-76
2022/01/13 05:45:29;;;;;;;17.35;6.93;;;;;;;-141.29;100.00;58932.97;5074177;28;20228;-73
2022/01/13 05:48:00;;;;;;;20.05;8.98;;;;;;;-141.29;100.00;58932.97;5074330;28;20557;-76
2022/01/13 05:50:32;;;;;;;20.73;7.88;;;;;;;-141.29;100.00;58932.97;5074300;28;20236;-76
2022/01/13 05:53:01;;;;;;;19.63;8.20;;;;;;;-141.29;100.00;58932.97;5074834;28;20200;-76
2022/01/13 05:55:33;;;;;;;21.83;8.18;;;;;;;-141.29;100.00;58932.97;5074079;28;20197;-77
2022/01/13 05:58:03;;;;;;;22.55;7.75;;;;;;;-141.29;100.00;58932.97;5074151;28;20285;-75
2022/01/13 06:00:30;;;;;;;22.40;8.15;;;;;;;-141.29;100.00;58932.97;5073683;28;20311;-73
2022/01/13 06:02:57;;;;;;;14.43;6.72;;;;;;;-141.29;100.00;58932.97;5073753;28;20622;-77
2022/01/13 06:05:25;;;;;;;20.50;8.45;;;;;;;-141.29;100.00;58932.97;5073917;28;20663;-75
2022/01/13 06:07:56;;;;;;;16.92;8.35;;;;;;;-141.29;100.00;58932.97;5073826;28;20201;-74
2022/01/13 06:10:23;;;;;;;22.02;8.63;;;;;;;-141.29;100.00;58932.97;5073742;28;20204;-74
2022/01/13 06:12:51;;;;;;;20.35;9.48;;;;;;;-141.29;100.00;58932.97;5073681;28;20223;-75
2022/01/13 06:15:22;;;;;;;13.75;6.82;;;;;;;-141.29;100.00;58932.97;5072103;28;20193;-76
2022/01/13 06:17:51;;;;;;;19.38;8.88;;;;;;;-141.29;100.00;58932.97;5073555;28;20249;-76
2022/01/13 06:20:22;;;;;;;20.15;9.05;;;;;;;-141.29;100.00;58932.97;5073156;28;20228;-72
2022/01/13 06:22:51;;;;;;;20.77;8.85;;;;;;;-141.29;100.00;58932.97;5073522;28;20208;-75
2022/01/13 06:25:21;;;;;;;14.57;7.00;;;;;;;-141.29;100.00;58932.97;5074025;28;20574;-74
2022/01/13 06:27:49;;;;;;;13.98;6.03;;;;;;;-141.29;100.00;58932.97;5073138;28;20569;-76
2022/01/13 06:30:18;;;;;;;19.15;7.90;;;;;;;-141.29;100.00;58932.97;5080572;28;20201;-75
2022/01/13 06:32:48;;;;;;;18.13;7.53;;;;;;;-141.29;100.00;58932.97;5074244;28;20196;-75
2022/01/13 06:35:15;;;;;;;13.00;6.82;;;;;;;-141.29;100.00;58932.97;5073148;28;20204;-75
2022/01/13 06:37:43;;;;;;;13.95;6.65;;;;;;;-141.29;100.00;58932.97;5073096;28;20253;-74
2022/01/13 06:40:14;;;;;;;22.30;8.90;;;;;;;-141.29;100.00;58932.97;5072812;28;20200;-76
2022/01/13 06:42:47;;;;;;;21.17;9.30;;;;;;;-141.29;100.00;58932.97;5072016;28;20287;-74
2022/01/13 06:45:21;;;;;;;18.42;8.20;;;;;;;-141.29;100.00;58932.97;5073143;28;20242;-76
2022/01/13 06:47:50;;;;;;;19.77;8.52;;;;;;;-141.29;100.00;58932.97;5072789;28;20206;-75
2022/01/13 06:50:18;;;;;;;16.80;6.65;;;;;;;-141.29;100.00;58932.97;5073154;28;20232;-74
2022/01/13 06:52:51;;;;;;;17.60;7.90;;;;;;;-141.29;100.00;58932.97;5072705;28;20627;-74
2022/01/13 06:55:18;;;;;;;15.45;7.13;;;;;;;-141.29;100.00;58932.97;5072368;28;20234;-73
2022/01/13 06:57:49;;;;;;;25.38;8.27;;;;;;;-141.29;100.00;58932.97;5072164;28;20274;-75
2022/01/13 07:00:19;;;;;;;22.52;8.07;;;;;;;-141.29;100.00;58932.97;5072435;28;20192;-74
2022/01/13 07:02:47;;;;;;;19.73;8.57;;;;;;;-141.29;100.00;58932.97;5072458;28;20200;-74
2022/01/13 07:05:14;;;;;;;16.02;7.68;;;;;;;-141.29;100.00;58932.97;5072670;28;20269;-76
2022/01/13 07:07:45;;;;;;;19.65;7.53;;;;;;;-141.29;100.00;58932.97;5072400;28;20623;-76
2022/01/13 07:10:14;;;;;;;16.15;5.85;;;;;;;-141.29;100.00;58932.97;5072252;28;20667;-76
2022/01/13 07:12:41;;;;;;;17.70;7.85;;;;;;;-141.29;100.00;58932.97;5071968;28;20213;-74
2022/01/13 07:15:14;;;;;;;21.27;8.63;;;;;;;-141.29;100.00;58932.97;5072412;28;20288;-74
2022/01/13 07:17:41;;;;;;;17.83;8.07;;;;;;;-141.29;100.00;58932.97;5072241;28;20208;-75
2022/01/13 07:20:10;;;;;;;19.67;8.63;;;;;;;-141.29;100.00;58932.97;5072207;28;20234;-74
2022/01/13 07:22:39;;;;;;;9.23;4.18;;;;;;;-141.29;100.00;58932.97;5071902;28;20236;-74
2022/01/13 07:25:06;;;;;;;17.48;8.00;;;;;;;-141.29;100.00;58932.97;5072507;28;20201;-72
2022/01/13 07:27:34;;;;;;;25.45;8.88;;;;;;;-141.29;100.00;58932.97;5072298;28;20254;-72
2022/01/13 07:30:03;;;;;;;21.73;7.93;;;;;;;-141.29;100.00;58932.97;5070978;28;20196;-76
2022/01/13 07:32:37;;;;;;;13.45;5.07;;;;;;;-141.29;100.00;58932.97;5072108;28;20721;-74
2022/01/13 07:35:04;;;;;;;18.63;7.65;;;;;;;-141.29;100.00;58932.97;5072005;28;20663;-74
2022/01/13 07:37:32;;;;;;;15.48;6.55;;;;;;;-141.29;100.00;58932.97;5071894;28;20192;-76
2022/01/13 07:40:01;;;;;;;15.93;6.10;;;;;;;-141.29;100.00;58932.97;5071926;28;20207;-75
2022/01/13 07:42:28;;;;;;;19.40;7.72;;;;;;;-141.29;100.00;58932.97;5071705;28;20289;-75
2022/01/13 07:44:56;;;;;;;19.73;7.13;;;;;;;-141.29;100.00;58932.97;5072204;28;20258;-75
2022/01/13 07:47:24;;;;;;;20.77;8.52;;;;;;;-141.29;100.00;58932.97;5071588;28;20691;-76
2022/01/13 07:49:55;;;;;;;15.57;7.47;;;;;;;-141.29;100.00;58932.97;5070918;28;20285;-75
2022/01/13 07:52:25;;;;;;;20.48;8.65;;;;;;;-141.29;100.00;58932.97;5071725;28;20200;-73
2022/01/13 07:54:52;;;;;;;15.77;6.88;;;;;;;-141.29;100.00;58932.97;5072064;28;20223;-73
2022/01/13 07:57:19;;;;;;;15.63;7.60;;;;;;;-141.29;100.00;58932.97;5071857;28;20196;-73
2022/01/13 07:59:50;;;;;;;11.20;5.45;;;;;;;-141.29;100.00;58932.97;5072330;28;20596;-75
2022/01/13 08:02:19;;;;;;;19.23;6.70;;;;;;;-141.29;100.00;58932.97;5071387;28;20289;-74
2022/01/13 08:04:49;;;;;;;19.02;7.18;;;;;;;-141.29;100.00;58932.97;5071771;28;20207;-75
2022/01/13 08:07:17;;;;;;;17.67;7.90;;;;;;;-141.29;100.00;58932.97;5071468;28;20253;-76
2022/01/13 08:09:44;;;;;;;19.25;7.70;;;;;;;-141.29;100.00;58932.97;5071063;28;20200;-75
2022/01/13 08:12:12;;;;;;;19.40;8.05;;;;;;;-141.29;100.00;58932.97;5070217;28;20208;-74
2022/01/13 08:14:42;;;;;;;14.77;6.72;;;;;;;-141.29;100.00;58932.97;5071503;28;20200;-74
2022/01/13 08:17:19;;;;;;;20.02;8.60;;;;;;;-141.29;100.00;58932.97;5071744;28;20603;-73
2022/01/13 08:19:48;;;;;;;22.40;8.48;;;;;;;-141.29;100.00;58932.97;5071925;28;20227;-73
2022/01/13 08:22:15;;;;;;;15.20;6.13;;;;;;;-141.29;100.00;58932.97;5071643;28;20634;-74
2022/01/13 08:24:44;;;;;;;20.15;8.85;;;;;;;-141.29;100.00;58932.97;5071619;28;20619;-74
2022/01/13 08:27:12;;;;;;;17.00;7.28;;;;;;;-141.29;100.00;58932.97;5071181;28;20257;-76
2022/01/13 08:29:39;;;;;;;17.52;7.55;;;;;;;-141.29;100.00;58932.97;5071685;28;20235;-75
2022/01/13 08:32:07;;;;;;;19.38;8.63;;;;;;;-141.29;100.00;58932.97;5071518;28;20592;-75
2022/01/13 08:34:35;;;;;;;17.48;7.80;;;;;;;-141.29;100.00;58932.97;5071458;28;20201;-75
2022/01/13 08:37:05;;;;;;;13.57;5.80;;;;;;;-141.29;100.00;58932.97;5073131;28;20256;-74
2022/01/13 08:39:40;;;;;;;18.10;7.78;;;;;;;-141.29;100.00;58932.97;5075806;28;20283;-75
2022/01/13 08:42:09;;;;;;;16.25;7.25;;;;;;;-141.29;100.00;58932.97;5071581;28;20263;-76
2022/01/13 08:44:39;;;;;;;26.58;8.57;;;;;;;-141.29;100.00;58932.97;5071793;28;20208;-74
2022/01/13 08:47:06;;;;;;;17.13;7.32;;;;;;;-141.29;100.00;58932.97;5071380;28;20197;-75
2022/01/13 08:49:33;;;;;;;19.95;7.57;;;;;;;-141.29;100.00;58932.97;5071480;28;20216;-74
2022/01/13 08:52:01;;;;;;;15.25;7.18;;;;;;;-141.29;100.00;58932.97;5071930;28;20248;-74
2022/01/13 08:54:28;;;;;;;17.42;7.55;;;;;;;-141.29;100.00;58932.97;5071607;28;20204;-75
2022/01/13 08:56:56;;;;;;;15.15;6.53;;;;;;;-141.29;100.00;58932.97;5071195;28;20208;-76
2022/01/13 08:59:29;;;;;;;13.98;6.68;;;;;;;-141.29;100.00;58932.97;5071112;28;20209;-75
2022/01/13 09:01:57;;;;;;;14.88;6.13;;;;;;;-141.29;100.00;58932.97;5071811;28;20236;-75
2022/01/13 09:04:24;;;;;;;15.00;6.30;;;;;;;-141.29;100.00;58932.97;5071190;28;20197;-75
2022/01/13 09:06:51;;;;;;;16.60;7.05;;;;;;;-141.29;100.00;58932.97;5070990;28;20377;-74
2022/01/13 09:09:19;;;;;;;13.55;6.93;;;;;;;-141.29;100.00;58932.97;5071002;28;20644;-74
2022/01/13 09:11:46;;;;;;;12.80;5.75;;;;;;;-141.29;100.00;58932.97;5071026;28;20205;-75
2022/01/13 09:14:17;;;;;;;14.18;6.72;;;;;;;-141.29;100.00;58932.97;5070798;28;20196;-75
2022/01/13 09:16:47;;;;;;;19.40;7.13;;;;;;;-141.29;100.00;58932.97;5071516;28;20258;-77
2022/01/13 09:19:18;;;;;;;16.23;6.75;;;;;;;-141.29;100.00;58932.97;5069912;28;20208;-76
2022/01/13 09:21:47;;;;;;;13.95;6.68;;;;;;;-141.29;100.00;58932.97;5073634;28;20285;-73
2022/01/13 09:24:17;;;;;;;12.68;5.93;;;;;;;-141.29;100.00;58932.97;5074117;28;20250;-72
2022/01/13 09:26:47;;;;;;;11.63;6.20;;;;;;;-141.29;100.00;58932.97;5074595;28;20208;-75
2022/01/13 09:29:17;;;;;;;11.02;4.38;;;;;;;-141.29;100.00;58932.97;5074538;28;20442;-74
2022/01/13 09:31:45;;;;;;;10.25;4.75;;;;;;;-141.29;100.00;58932.97;5074402;28;20258;-74
2022/01/13 09:34:17;;;;;;;10.85;4.10;;;;;;;-141.29;100.00;58932.97;5074292;28;20582;-73
2022/01/13 09:36:46;;;;;;;15.50;5.60;;;;;;;-141.29;100.00;58932.97;5074608;28;20213;-73
2022/01/13 09:39:13;;;;;;;14.77;4.93;;;;;;;-141.29;100.00;58932.97;5074347;28;20583;-76
2022/01/13 09:41:55;;;;;;;13.70;5.53;;;;;;;-141.29;100.00;58932.97;5074130;28;20224;-74
2022/01/13 09:44:32;;;;;;;9.10;4.22;;;;;;;-141.29;100.00;58932.97;5074394;28;20196;-75
2022/01/13 09:49:45;;;;;;;14.32;6.15;;;;;;;-141.29;100.00;58932.97;5074582;28;20235;-73
2022/01/13 09:52:13;;;;;;;16.48;6.47;;;;;;;-141.29;100.00;58932.97;5073955;28;20331;-75
2022/01/13 09:54:43;;;;;;;11.68;5.20;;;;;;;-141.29;100.00;58932.97;5073995;28;20205;-74
2022/01/13 09:57:13;;;;;;;16.63;6.68;;;;;;;-141.29;100.00;58932.97;5074828;28;20230;-73
2022/01/13 09:59:40;;;;;;;14.10;4.78;;;;;;;-141.29;100.00;58932.97;5073836;28;20212;-75
2022/01/13 10:02:12;;;;;;;15.43;7.13;;;;;;;-141.29;100.00;58932.97;5073746;28;20311;-74
2022/01/13 10:05:11;;;;;;;15.68;6.80;;;;;;;-141.29;100.00;58932.97;5073794;28;20644;-74
2022/01/13 10:07:41;;;;;;;12.82;6.13;;;;;;;-141.29;100.00;58932.97;5073284;28;20257;-75
2022/01/13 10:10:14;;;;;;;14.32;6.43;;;;;;;-141.29;100.00;58932.97;5073384;28;20193;-75
2022/01/13 10:12:43;;;;;;;19.52;7.55;;;;;;;-141.29;100.00;58932.97;5073470;28;20251;-76
2022/01/13 10:17:59;;;;;;;24.02;7.13;;;;;;;-141.29;100.00;58932.97;5073887;28;20281;-75
2022/01/13 10:20:26;;;;;;;10.57;5.85;;;;;;;-141.29;100.00;58932.97;5074035;28;20208;-75
2022/01/13 10:22:56;;;;;;;16.45;6.57;;;;;;;-141.29;100.00;58932.97;5073501;28;20277;-76
2022/01/13 10:25:34;;;;;;;18.15;7.50;;;;;;;-141.29;100.00;58932.97;5072018;28;20269;-74
2022/01/13 10:28:17;;;;;;;16.55;6.93;;;;;;;-141.29;100.00;58932.97;5071912;28;20208;-74
2022/01/13 10:30:47;;;;;;;23.83;7.38;;;;;;;-141.29;100.00;58932.97;5073686;28;20201;-74
2022/01/13 10:33:20;;;;;;;12.95;5.38;;;;;;;-141.29;100.00;58932.97;5070951;28;20710;-78
2022/01/13 10:35:48;;;;;;;16.10;7.28;;;;;;;-141.29;100.00;58932.97;5073370;28;20230;-75
2022/01/13 10:38:18;;;;;;;23.33;8.38;;;;;;;-141.29;100.00;58932.97;5072986;28;20299;-75
2022/01/13 10:40:53;;;;;;;19.87;8.67;;;;;;;-141.29;100.00;58932.97;5075771;28;20236;-74
2022/01/13 10:43:24;;;;;;;18.13;8.00;;;;;;;-141.29;100.00;58932.97;5074896;28;21030;-75
2022/01/13 10:45:55;;;;;;;16.73;7.90;;;;;;;-141.29;100.00;58932.97;5073215;28;20204;-73
2022/01/13 10:48:26;;;;;;;16.80;7.00;;;;;;;-141.29;100.00;58932.97;5072674;28;20227;-72
2022/01/13 10:51:01;;;;;;;16.73;8.17;;;;;;;-141.29;100.00;58932.97;5072896;28;20991;-74
2022/01/13 10:53:32;;;;;;;18.63;8.57;;;;;;;-141.29;100.00;58932.97;5073232;28;20438;-77
2022/01/13 10:56:06;;;;;;;18.97;8.67;;;;;;;-141.29;100.00;58932.97;5072665;28;20969;-74
2022/01/13 10:58:37;;;;;;;24.10;9.17;;;;;;;-141.29;100.00;58932.97;5072709;28;20493;-75
2022/01/13 11:01:06;;;;;;;14.47;7.17;;;;;;;-141.29;100.00;58932.97;5072633;28;20941;-73
2022/01/13 11:03:39;;;;;;;29.87;10.17;;;;;;;-141.29;100.00;58932.97;5072670;28;21016;-76
2022/01/13 11:06:09;;;;;;;16.97;7.00;;;;;;;-141.29;100.00;58932.97;5073358;28;20503;-76
2022/01/13 11:08:41;;;;;;;11.53;5.90;;;;;;;-141.29;100.00;58932.97;5072755;28;20832;-73
2022/01/13 11:11:18;;;;;;;17.73;7.03;;;;;;;-141.29;100.00;58932.97;5072489;28;20438;-77
2022/01/13 11:13:53;;;;;;;18.73;8.07;;;;;;;-141.29;100.00;58932.97;5072332;28;20443;-75
2022/01/13 11:16:20;;;;;;;20.97;9.00;;;;;;;-141.29;100.00;58932.97;5071689;28;20478;-76
2022/01/13 11:18:55;;;;;;;17.23;8.10;;;;;;;-141.29;100.00;58932.97;5072504;28;20445;-75
2022/01/13 11:21:22;;;;;;;17.23;9.43;;;;;;;-141.29;100.00;58932.97;5072886;28;20842;-74
2022/01/13 11:23:51;;;;;;;17.57;8.37;;;;;;;-141.29;100.00;58932.97;5072490;28;20567;-75
2022/01/13 11:26:20;;;;;;;20.30;8.90;;;;;;;-141.29;100.00;58932.97;5072507;28;20831;-73
2022/01/13 11:28:49;;;;;;;17.53;8.37;;;;;;;-141.29;100.00;58932.97;5071935;28;20991;-74
2022/01/13 11:31:16;;;;;;;18.73;8.67;;;;;;;-141.29;100.00;58932.97;5072243;28;20793;-76
2022/01/13 11:33:44;;;;;;;21.97;8.60;;;;;;;-141.29;100.00;58932.97;5072587;28;20496;-74
2022/01/13 11:36:19;;;;;;;19.97;8.17;;;;;;;-141.29;100.00;58932.97;5072213;28;20443;-76
2022/01/13 11:38:57;;;;;;;18.23;7.70;;;;;;;-141.29;100.00;58932.97;5072501;28;20442;-75